createdAt,value
2022-11-28T00:01:45.544Z,69.18
2022-11-28T00:04:12.307Z,69.54
2022-11-28T00:06:42.671Z,68.85
2022-11-28T00:09:09.332Z,68.60
2022-11-28T00:11:35.994Z,68.55
2022-11-28T00:14:04.544Z,68.92
2022-11-28T00:16:31.092Z,68.03
2022-11-28T00:18:59.761Z,68.35
2022-11-28T00:21:26.404Z,68.65
2022-11-28T00:23:53.131Z,68.86
2022-11-28T00:26:22.754Z,68.66
2022-11-28T00:28:49.311Z,68.37
2022-11-28T00:31:18.571Z,68.39
2022-11-28T00:33:46.707Z,68.64
2022-11-28T00:36:13.827Z,68.56
2022-11-28T00:38:41.107Z,69.19
2022-11-28T00:41:08.699Z,70.33
2022-11-28T00:43:35.648Z,70.92
2022-11-28T00:46:02.785Z,72.12
2022-11-28T00:48:29.615Z,71.26
2022-11-28T00:51:05.766Z,71.34
2022-11-28T00:53:34.590Z,71.49
2022-11-28T00:56:01.157Z,71.47
2022-11-28T00:58:27.658Z,72.53
2022-11-28T01:00:54.211Z,72.96
2022-11-28T01:03:20.709Z,72.80
2022-11-28T01:05:47.199Z,71.91
2022-11-28T01:08:13.703Z,71.31
2022-11-28T01:10:45.225Z,71.96
2022-11-28T01:13:11.935Z,71.63
2022-11-28T01:15:42.571Z,72.07
2022-11-28T01:18:09.474Z,74.20
2022-11-28T01:20:36.843Z,74.15
2022-11-28T01:23:03.400Z,73.09
2022-11-28T01:25:30.207Z,72.85
2022-11-28T01:27:56.685Z,71.95
2022-11-28T01:30:23.182Z,71.39
2022-11-28T01:32:49.660Z,70.59
2022-11-28T01:35:16.238Z,69.18
2022-11-28T01:37:42.706Z,69.24
2022-11-28T01:40:11.342Z,68.92
2022-11-28T01:42:38.271Z,68.75
2022-11-28T01:45:12.307Z,68.76
2022-11-28T01:47:39.039Z,69.37
2022-11-28T01:50:08.677Z,68.98
2022-11-28T01:52:38.128Z,68.73
2022-11-28T01:55:05.771Z,68.14
2022-11-28T01:57:32.522Z,68.42
2022-11-28T02:00:07.198Z,68.14
2022-11-28T02:02:38.859Z,67.88
2022-11-28T02:05:06.230Z,68.31
2022-11-28T02:07:33.321Z,68.85
2022-11-28T02:10:01.191Z,69.57
2022-11-28T02:12:51.682Z,69.92
2022-11-28T02:15:21.080Z,69.60
2022-11-28T02:18:10.218Z,69.12
2022-11-28T02:20:48.380Z,68.67
2022-11-28T02:23:18.254Z,68.80
2022-11-28T02:26:06.493Z,68.42
2022-11-28T02:28:51.439Z,67.72
2022-11-28T02:31:17.893Z,68.46
2022-11-28T02:33:55.851Z,68.54
2022-11-28T02:36:31.875Z,69.33
2022-11-28T02:39:10.811Z,69.70
2022-11-28T02:41:43.783Z,69.06
2022-11-28T02:44:14.106Z,67.84
2022-11-28T02:46:40.501Z,68.08
2022-11-28T02:49:08.667Z,67.51
2022-11-28T02:51:39.881Z,67.81
2022-11-28T02:54:09.400Z,66.81
2022-11-28T02:56:35.991Z,66.87
2022-11-28T02:59:02.566Z,66.80
2022-11-28T03:01:37.491Z,65.85
2022-11-28T03:04:20.897Z,66.06
2022-11-28T03:07:01.940Z,65.84
2022-11-28T03:09:37.407Z,66.88
2022-11-28T03:12:31.195Z,66.89
2022-11-28T03:15:02.261Z,67.38
2022-11-28T03:18:03.129Z,68.34
2022-11-28T03:20:47.949Z,69.29
2022-11-28T03:23:20.465Z,70.23
2022-11-28T03:25:58.435Z,71.12
2022-11-28T03:28:39.273Z,70.90
2022-11-28T03:32:01.299Z,70.52
2022-11-28T03:34:32.388Z,68.93
2022-11-28T03:37:06.153Z,68.79
2022-11-28T03:39:36.692Z,67.91
2022-11-28T03:42:09.522Z,67.73
2022-11-28T03:44:40.383Z,66.97
2022-11-28T03:47:07.254Z,68.00
2022-11-28T03:49:57.819Z,67.18
2022-11-28T03:52:28.594Z,66.27
2022-11-28T03:55:06.366Z,67.02
2022-11-28T03:57:42.219Z,66.80
2022-11-28T04:00:11.334Z,67.19
2022-11-28T04:02:52.940Z,67.16
2022-11-28T04:05:19.408Z,66.11
2022-11-28T04:07:51.079Z,65.80
2022-11-28T04:10:25.084Z,64.68
2022-11-28T04:13:33.255Z,65.11
2022-11-28T04:16:05.958Z,62.87
2022-11-28T04:18:43.464Z,61.64
2022-11-28T04:21:36.133Z,62.61
2022-11-28T04:24:06.132Z,62.10
2022-11-28T04:26:36.627Z,61.92
2022-11-28T04:29:07.251Z,62.34
2022-11-28T04:31:34.477Z,61.45
2022-11-28T04:34:05.661Z,60.56
2022-11-28T04:36:34.809Z,61.58
2022-11-28T04:39:01.940Z,60.64
2022-11-28T04:41:34.154Z,60.41
2022-11-28T04:44:13.755Z,60.42
2022-11-28T04:46:43.388Z,60.22
2022-11-28T04:49:10.559Z,61.66
2022-11-28T04:51:48.386Z,60.62
2022-11-28T04:54:21.953Z,62.01
2022-11-28T04:56:58.051Z,61.95
2022-11-28T04:59:25.393Z,60.66
2022-11-28T05:01:51.900Z,61.51
2022-11-28T05:04:18.528Z,60.39
2022-11-28T05:06:45.255Z,60.49
2022-11-28T05:09:12.844Z,61.09
2022-11-28T05:11:39.580Z,61.05
2022-11-28T05:14:06.221Z,60.57
2022-11-28T05:16:32.796Z,61.34
2022-11-28T05:18:59.337Z,61.43
2022-11-28T05:21:25.832Z,61.46
2022-11-28T05:23:52.330Z,62.15
2022-11-28T05:26:21.107Z,60.29
2022-11-28T05:28:49.311Z,61.03
2022-11-28T05:31:16.678Z,60.75
2022-11-28T05:33:43.191Z,61.63
2022-11-28T05:36:13.158Z,60.63
2022-11-28T05:38:39.896Z,61.31
2022-11-28T05:41:06.598Z,60.53
2022-11-28T05:43:33.055Z,61.11
2022-11-28T05:45:59.721Z,61.30
2022-11-28T05:48:26.490Z,61.20
2022-11-28T05:50:53.088Z,61.07
2022-11-28T05:53:19.618Z,62.18
2022-11-28T05:55:46.673Z,62.35
2022-11-28T05:58:16.296Z,62.48
2022-11-28T06:00:42.808Z,62.13
2022-11-28T06:03:09.487Z,62.43
2022-11-28T06:05:43.435Z,62.27
2022-11-28T06:08:11.896Z,61.92
2022-11-28T06:10:38.533Z,62.08
2022-11-28T06:13:05.285Z,62.03
2022-11-28T06:15:36.182Z,62.21
2022-11-28T06:18:04.240Z,62.55
2022-11-28T06:20:30.769Z,63.28
2022-11-28T06:22:57.286Z,62.71
2022-11-28T06:25:23.843Z,62.69
2022-11-28T06:27:50.330Z,63.18
2022-11-28T06:30:17.084Z,62.67
2022-11-28T06:32:43.535Z,63.63
2022-11-28T06:35:10.010Z,63.73
2022-11-28T06:37:39.546Z,63.59
2022-11-28T06:40:06.582Z,63.87
2022-11-28T06:42:37.823Z,63.34
2022-11-28T06:45:05.207Z,64.30
2022-11-28T06:47:32.260Z,63.85
2022-11-28T06:49:58.723Z,64.18
2022-11-28T06:52:25.367Z,64.03
2022-11-28T06:54:51.872Z,63.97
2022-11-28T06:57:18.494Z,64.69
2022-11-28T06:59:45.173Z,64.62
2022-11-28T07:02:11.824Z,64.87
2022-11-28T07:04:38.421Z,65.77
2022-11-28T07:07:05.078Z,66.08
2022-11-28T07:09:31.686Z,65.74
2022-11-28T07:11:58.236Z,65.74
2022-11-28T07:14:24.706Z,65.98
2022-11-28T07:16:51.461Z,65.66
2022-11-28T07:19:17.984Z,66.31
2022-11-28T07:21:44.475Z,67.10
2022-11-28T07:24:10.979Z,65.70
2022-11-28T07:26:37.458Z,64.40
2022-11-28T07:29:04.464Z,65.20
2022-11-28T07:31:31.020Z,65.21
2022-11-28T07:33:57.693Z,65.09
2022-11-28T07:36:25.868Z,66.80
2022-11-28T07:38:58.047Z,66.05
2022-11-28T07:41:27.035Z,64.52
2022-11-28T07:44:14.577Z,64.12
2022-11-28T07:46:41.152Z,64.34
2022-11-28T07:49:07.759Z,64.19
2022-11-28T07:51:34.311Z,62.91
2022-11-28T07:54:01.842Z,64.22
2022-11-28T07:56:56.726Z,63.45
2022-11-28T08:02:50.976Z,61.91
2022-11-28T08:05:17.976Z,61.56
2022-11-28T08:07:50.032Z,62.11
2022-11-28T08:10:17.279Z,62.83
2022-11-28T08:12:44.242Z,62.11
2022-11-28T08:15:31.551Z,61.36
2022-11-28T08:17:58.076Z,60.83
2022-11-28T08:20:26.924Z,60.25
2022-11-28T08:22:53.449Z,60.43
2022-11-28T08:25:28.622Z,60.30
2022-11-28T08:27:55.073Z,58.40
2022-11-28T08:30:21.566Z,58.87
2022-11-28T08:32:51.068Z,59.21
2022-11-28T08:35:17.782Z,59.21
2022-11-28T08:37:47.472Z,59.13
2022-11-28T08:40:34.973Z,58.05
2022-11-28T08:43:02.325Z,58.65
2022-11-28T09:08:21.114Z,57.16
2022-11-28T09:22:04.915Z,56.75
2022-11-28T09:24:54.096Z,56.08
2022-11-28T09:31:32.977Z,57.41
2022-11-28T10:02:58.344Z,60.43
2022-11-28T10:17:00.473Z,59.02
2022-11-28T10:30:33.166Z,57.57
2022-11-28T10:33:37.279Z,57.37
2022-11-28T10:36:32.080Z,57.28
2022-11-28T10:47:13.054Z,59.12
2022-11-28T11:01:14.934Z,58.52
2022-11-28T11:03:49.138Z,58.59
2022-11-28T11:06:15.716Z,58.79
2022-11-28T11:08:44.839Z,58.60
2022-11-28T11:14:47.349Z,57.02
2022-11-28T11:17:36.635Z,59.31
2022-11-28T11:27:22.024Z,58.73
2022-11-28T11:29:51.465Z,56.70
2022-11-28T11:32:29.130Z,58.65
2022-11-28T11:34:57.934Z,57.95
2022-11-28T11:37:35.911Z,57.81
2022-11-28T11:40:27.140Z,57.57
2022-11-28T11:42:58.239Z,57.85
2022-11-28T11:45:38.181Z,56.78
2022-11-28T11:48:05.013Z,55.89
2022-11-28T11:50:32.016Z,58.92
2022-11-28T11:53:01.527Z,55.59
2022-11-28T11:56:04.149Z,55.51
2022-11-28T11:58:39.799Z,54.30
2022-11-28T12:01:22.040Z,53.61
2022-11-28T12:04:08.385Z,53.32
2022-11-28T12:06:44.852Z,53.39
2022-11-28T12:09:36.580Z,53.39
2022-11-28T12:12:24.236Z,54.50
2022-11-28T12:14:51.367Z,53.96
2022-11-28T12:17:47.782Z,53.51
2022-11-28T12:20:39.124Z,54.20
2022-11-28T12:23:17.345Z,54.25
2022-11-28T12:25:50.769Z,53.07
2022-11-28T12:28:58.844Z,52.73
2022-11-28T12:31:31.374Z,52.13
2022-11-28T12:34:07.791Z,52.00
2022-11-28T12:37:11.795Z,51.71
2022-11-28T12:39:47.454Z,51.91
2022-11-28T12:43:01.411Z,52.36
2022-11-28T12:45:27.822Z,52.92
2022-11-28T12:47:54.354Z,52.53
2022-11-28T12:50:41.549Z,51.42
2022-11-28T12:53:41.441Z,52.19
2022-11-28T12:56:41.966Z,52.40
2022-11-28T12:59:19.331Z,53.19
2022-11-28T13:01:59.902Z,52.35
2022-11-28T13:04:54.436Z,52.95
2022-11-28T13:07:32.980Z,53.37
2022-11-28T13:10:19.902Z,54.10
2022-11-28T13:12:55.844Z,54.51
2022-11-28T13:18:50.810Z,53.62
2022-11-28T13:21:54.963Z,52.76
2022-11-28T13:28:19.437Z,53.55
2022-11-28T13:34:18.391Z,56.40
2022-11-28T13:40:36.703Z,57.60
2022-11-28T13:43:15.117Z,60.44
2022-11-28T13:45:43.446Z,60.93
2022-11-28T13:49:13.323Z,61.05
2022-11-28T13:51:33.000Z,61.42
2022-11-28T13:57:21.836Z,61.61
2022-11-28T14:07:22.700Z,62.40
2022-11-28T14:09:55.055Z,61.73
2022-11-28T14:12:43.058Z,61.79
2022-11-28T14:18:57.209Z,62.65
2022-11-28T14:21:54.682Z,62.48
2022-11-28T14:28:25.206Z,62.61
2022-11-28T14:34:47.901Z,64.48
2022-11-28T14:45:08.370Z,66.58
2022-11-28T14:48:30.464Z,67.19
2022-11-28T15:02:50.354Z,68.41
2022-11-28T15:05:26.428Z,68.41
2022-11-28T15:08:11.715Z,68.91
2022-11-28T15:11:11.628Z,69.37
2022-11-28T15:14:09.602Z,69.46
2022-11-28T15:16:49.873Z,69.79
2022-11-28T15:19:31.931Z,69.06
2022-11-28T15:21:58.376Z,71.00
2022-11-28T15:24:36.054Z,70.74
2022-11-28T15:27:08.347Z,71.04
2022-11-28T15:29:36.122Z,70.74
2022-11-28T15:32:02.788Z,72.44
2022-11-28T15:34:42.620Z,72.30
2022-11-28T15:38:07.684Z,72.59
2022-11-28T15:40:34.107Z,73.35
2022-11-28T15:43:01.575Z,75.02
2022-11-28T15:45:30.263Z,74.18
2022-11-28T15:47:57.419Z,74.41
2022-11-28T15:50:31.209Z,75.60
2022-11-28T15:53:15.985Z,75.84
2022-11-28T15:55:48.069Z,75.82
2022-11-28T15:58:24.539Z,77.52
2022-11-28T16:01:15.624Z,77.81
2022-11-28T16:04:02.407Z,78.12
2022-11-28T16:06:31.342Z,77.97
2022-11-28T16:09:00.324Z,78.92
2022-11-28T16:11:28.557Z,79.59
2022-11-28T16:13:58.111Z,79.77
2022-11-28T16:16:33.387Z,79.84
2022-11-28T16:19:06.117Z,80.57
2022-11-28T16:21:45.560Z,81.59
2022-11-28T16:24:50.440Z,82.35
2022-11-28T16:27:30.055Z,82.57
2022-11-28T16:29:56.738Z,82.15
2022-11-28T16:32:38.126Z,81.49
2022-11-28T16:35:06.264Z,80.59
2022-11-28T16:37:33.132Z,80.80
2022-11-28T16:40:19.959Z,80.92
2022-11-28T16:42:53.724Z,80.82
2022-11-28T16:45:24.572Z,79.62
2022-11-28T16:48:08.777Z,79.93
2022-11-28T16:50:36.729Z,78.90
2022-11-28T17:07:42.176Z,78.44
2022-11-28T17:10:14.626Z,77.30
2022-11-28T17:12:41.490Z,77.14
2022-11-28T17:15:14.165Z,76.29
2022-11-28T17:17:49.803Z,75.11
2022-11-28T17:23:27.906Z,75.04
2022-11-28T17:25:54.421Z,75.20
2022-11-28T17:28:24.187Z,74.12
2022-11-28T17:31:34.245Z,74.52
2022-11-28T17:34:00.763Z,75.11
2022-11-28T17:36:27.238Z,74.58
2022-11-28T17:38:59.848Z,74.22
2022-11-28T17:41:30.253Z,74.54
2022-11-28T17:43:56.704Z,73.96
2022-11-28T17:49:23.332Z,74.47
2022-11-28T17:56:17.173Z,75.89
2022-11-28T17:58:43.684Z,76.33
2022-11-28T18:03:54.612Z,74.92
2022-11-28T18:07:00.632Z,73.96
2022-11-28T18:09:27.273Z,74.04
2022-11-28T18:11:53.768Z,74.59
2022-11-28T18:14:22.290Z,75.40
2022-11-28T18:16:51.154Z,75.24
2022-11-28T18:19:18.642Z,75.76
2022-11-28T18:29:41.926Z,75.51
2022-11-28T18:32:17.606Z,75.42
2022-11-28T18:34:47.238Z,74.03
2022-11-28T18:45:22.811Z,73.90
2022-11-28T18:47:49.399Z,74.69
2022-11-28T18:57:25.361Z,74.64
2022-11-28T18:59:55.199Z,75.22
2022-11-28T19:02:22.130Z,75.06
2022-11-28T19:05:23.477Z,76.27
2022-11-28T19:07:50.337Z,75.34
2022-11-28T19:10:16.975Z,75.02
2022-11-28T19:12:46.464Z,74.30
2022-11-28T19:15:13.098Z,74.54
2022-11-28T19:17:40.768Z,74.53
2022-11-28T19:20:27.633Z,74.38
2022-11-28T19:25:54.090Z,73.35
2022-11-28T19:28:20.609Z,73.03
2022-11-28T19:30:47.269Z,72.86
2022-11-28T19:33:13.954Z,72.68
2022-11-28T19:35:43.369Z,72.77
2022-11-28T19:38:09.907Z,73.50
2022-11-28T19:40:40.467Z,75.10
2022-11-28T20:33:50.055Z,79.67
2022-11-28T20:36:18.082Z,79.05
2022-11-28T20:38:44.813Z,78.71
2022-11-28T20:41:13.177Z,78.15
2022-11-28T20:43:40.532Z,79.04
2022-11-28T20:46:21.854Z,79.03
2022-11-28T20:48:49.353Z,79.17
2022-11-28T20:51:19.448Z,78.90
2022-11-28T20:53:52.479Z,78.58
2022-11-28T20:56:21.456Z,77.76
2022-11-28T21:02:57.412Z,78.45
2022-11-28T21:06:00.667Z,77.88
2022-11-28T21:08:57.248Z,77.41
2022-11-28T21:11:55.238Z,76.92
2022-11-28T21:17:40.944Z,77.83
2022-11-28T21:20:45.644Z,78.13
2022-11-28T21:23:44.829Z,77.23
2022-11-28T21:26:14.360Z,76.94
2022-11-28T21:29:14.983Z,77.70
2022-11-28T21:35:40.897Z,77.46
2022-11-28T21:41:36.592Z,77.41
2022-11-28T21:44:07.114Z,76.42
2022-11-28T21:50:17.280Z,74.25
2022-11-28T21:52:46.678Z,74.01
2022-11-28T21:55:13.151Z,74.66
2022-11-28T21:57:39.616Z,74.09
2022-11-28T22:00:38.594Z,74.17
2022-11-28T22:06:44.826Z,73.94
2022-11-28T22:09:11.513Z,74.03
2022-11-28T22:11:40.766Z,74.44
2022-11-28T22:14:09.757Z,73.94
2022-11-28T22:16:36.264Z,73.56
2022-11-28T22:19:02.770Z,73.65
2022-11-28T22:22:08.560Z,73.58
2022-11-28T22:24:35.075Z,74.49
2022-11-28T22:27:01.572Z,75.07
2022-11-28T22:29:28.042Z,76.55
2022-11-28T22:31:54.782Z,77.09
2022-11-28T22:34:21.369Z,76.77
2022-11-28T22:36:47.933Z,77.03
2022-11-28T22:39:14.479Z,76.80
2022-11-28T22:41:41.054Z,76.58
2022-11-28T22:44:07.535Z,76.35
2022-11-28T22:46:34.082Z,76.64
2022-11-28T22:49:01.147Z,77.95
2022-11-28T22:51:28.621Z,77.22
2022-11-28T22:53:59.762Z,76.10
2022-11-28T22:56:27.020Z,76.25
2022-11-28T22:58:53.531Z,75.81
2022-11-28T23:01:25.891Z,74.75
2022-11-28T23:03:54.422Z,74.97
2022-11-28T23:06:23.981Z,74.81
2022-11-28T23:08:51.264Z,75.02
2022-11-28T23:11:21.390Z,74.36
2022-11-28T23:13:48.603Z,74.41
2022-11-28T23:16:24.077Z,74.74
2022-11-28T23:18:52.770Z,75.03
2022-11-28T23:21:38.936Z,75.12
2022-11-28T23:24:19.805Z,74.49
2022-11-28T23:26:53.007Z,74.28
2022-11-28T23:29:20.093Z,75.20
2022-11-28T23:32:20.943Z,77.92
2022-11-28T23:35:13.052Z,76.93
2022-11-28T23:37:39.631Z,76.25
2022-11-28T23:40:07.376Z,76.23
2022-11-28T23:42:43.713Z,75.83
2022-11-28T23:45:16.027Z,75.62
2022-11-28T23:47:44.770Z,76.66
2022-11-28T23:50:11.324Z,75.78
2022-11-28T23:52:38.978Z,75.81
2022-11-28T23:55:06.188Z,77.25
2022-11-28T23:57:32.718Z,75.97
